Time,TemperatureF,DewpointF,PressureIn,WindDirection,WindDirectionDegrees,WindSpeedMPH,WindSpeedGustMPH,Humidity,HourlyPrecipIn,Conditions,Clouds,dailyrainin,SoftwareType,DateUTC
2013-10-23 00:14:00,49.8,47.0,29.93,WNW,283,4.0,5.0,89,0.00,,,0.00,weatherlink.com 1.10,2013-10-23 04:14:00,
2013-10-23 00:29:00,49.3,47.0,29.93,WNW,289,4.0,6.0,90,0.00,,,0.00,weatherlink.com 1.10,2013-10-23 04:29:00,
2013-10-23 00:44:00,49.1,46.0,29.92,WNW,302,6.0,8.0,90,0.00,,,0.00,weatherlink.com 1.10,2013-10-23 04:44:00,
2013-10-23 00:59:00,48.8,46.0,29.93,WNW,283,3.0,6.0,91,0.00,,,0.00,weatherlink.com 1.10,2013-10-23 04:59:00,
2013-10-23 01:14:00,48.8,46.0,29.92,West,264,3.0,7.0,91,0.00,,,0.00,weatherlink.com 1.10,2013-10-23 05:14:00,
2013-10-23 01:29:00,49.2,47.0,29.93,West,270,4.0,8.0,91,0.00,,,0.00,weatherlink.com 1.10,2013-10-23 05:29:00,
2013-10-23 01:45:00,49.6,47.0,29.92,West,271,7.0,12.0,90,0.00,,,0.00,weatherlink.com 1.10,2013-10-23 05:45:00,
2013-10-23 02:00:00,50.1,47.0,29.92,WNW,296,4.0,13.0,89,0.00,,,0.00,weatherlink.com 1.10,2013-10-23 06:00:00,
2013-10-23 02:15:00,50.5,47.0,29.92,WNW,290,10.0,12.0,87,0.00,,,0.00,weatherlink.com 1.10,2013-10-23 06:15:00,
2013-10-23 02:30:00,50.5,47.0,29.92,WSW,239,2.0,11.0,87,0.00,,,0.00,weatherlink.com 1.10,2013-10-23 06:30:00,
2013-10-23 02:45:00,50.1,47.0,29.91,West,277,5.0,9.0,89,0.00,,,0.00,weatherlink.com 1.10,2013-10-23 06:45:00,
2013-10-23 03:00:00,50.4,47.0,29.91,South,184,5.0,8.0,89,0.00,,,0.00,weatherlink.com 1.10,2013-10-23 07:00:00,
2013-10-23 03:15:00,50.5,48.0,29.90,SE,137,5.0,14.0,90,0.00,,,0.00,weatherlink.com 1.10,2013-10-23 07:15:00,
2013-10-23 03:30:00,50.8,49.0,29.90,West,275,7.0,15.0,92,0.00,,,0.00,weatherlink.com 1.10,2013-10-23 07:30:00,
2013-10-23 03:45:00,51.1,48.0,29.89,West,270,9.0,12.0,90,0.00,,,0.00,weatherlink.com 1.10,2013-10-23 07:45:00,
2013-10-23 04:00:00,51.3,49.0,29.88,SW,223,4.0,12.0,90,0.00,,,0.00,weatherlink.com 1.10,2013-10-23 08:00:00,
2013-10-23 04:15:00,50.8,49.0,29.88,SW,217,6.0,14.0,92,0.00,,,0.00,weatherlink.com 1.10,2013-10-23 08:15:00,
2013-10-23 04:30:00,50.8,49.0,29.88,SW,221,11.0,16.0,92,0.00,,,0.00,weatherlink.com 1.10,2013-10-23 08:30:00,
2013-10-23 04:45:00,50.9,49.0,29.88,WNW,294,5.0,12.0,92,0.00,,,0.00,weatherlink.com 1.10,2013-10-23 08:45:00,
2013-10-23 05:00:00,51.1,48.0,29.87,West,264,6.0,18.0,88,0.00,,,0.00,weatherlink.com 1.10,2013-10-23 09:00:00,
2013-10-23 05:15:00,51.2,48.0,29.87,West,271,5.0,14.0,88,0.00,,,0.00,weatherlink.com 1.10,2013-10-23 09:15:00,
2013-10-23 05:30:00,50.8,47.0,29.87,West,270,7.0,13.0,88,0.00,,,0.00,weatherlink.com 1.10,2013-10-23 09:30:00,
2013-10-23 05:45:00,50.7,47.0,29.87,WNW,293,6.0,15.0,86,0.00,,,0.00,weatherlink.com 1.10,2013-10-23 09:45:00,
2013-10-23 06:00:00,50.8,46.0,29.88,WSW,243,3.0,19.0,84,0.00,,,0.00,weatherlink.com 1.10,2013-10-23 10:00:00,
2013-10-23 06:15:00,50.8,46.0,29.88,West,272,15.0,22.0,83,0.00,,,0.00,weatherlink.com 1.10,2013-10-23 10:15:00,
2013-10-23 06:30:00,50.4,46.0,29.88,West,281,5.0,16.0,84,0.00,,,0.00,weatherlink.com 1.10,2013-10-23 10:30:00,
2013-10-23 06:45:00,49.8,46.0,29.88,SW,231,10.0,15.0,85,0.00,,,0.00,weatherlink.com 1.10,2013-10-23 10:45:00,
2013-10-23 07:00:00,49.2,45.0,29.89,NW,304,8.0,14.0,86,0.00,,,0.00,weatherlink.com 1.10,2013-10-23 11:00:00,
2013-10-23 07:15:00,48.8,45.0,29.90,NW,304,10.0,16.0,85,0.00,,,0.00,weatherlink.com 1.10,2013-10-23 11:15:00,
2013-10-23 07:30:00,48.7,44.0,29.89,WNW,299,9.0,15.0,84,0.00,,,0.00,weatherlink.com 1.10,2013-10-23 11:30:00,
2013-10-23 07:45:00,48.5,44.0,29.91,NW,313,2.0,13.0,85,0.00,,,0.00,weatherlink.com 1.10,2013-10-23 11:45:00,
2013-10-23 08:01:00,48.1,44.0,29.91,WNW,287,4.0,14.0,85,0.00,,,0.00,weatherlink.com 1.10,2013-10-23 12:01:00,
2013-10-23 08:16:00,48.0,43.0,29.91,West,271,6.0,15.0,84,0.00,,,0.00,weatherlink.com 1.10,2013-10-23 12:16:00,
2013-10-23 08:31:00,48.0,43.0,29.92,NW,306,12.0,19.0,82,0.00,,,0.00,weatherlink.com 1.10,2013-10-23 12:31:00,
2013-10-23 08:46:00,48.1,42.0,29.93,WNW,301,9.0,21.0,80,0.00,,,0.00,weatherlink.com 1.10,2013-10-23 12:46:00,
2013-10-23 09:01:00,48.5,42.0,29.93,WNW,297,19.0,24.0,77,0.00,,,0.00,weatherlink.com 1.10,2013-10-23 13:01:00,
2013-10-23 09:16:00,48.7,41.0,29.94,WNW,293,17.0,22.0,75,0.00,,,0.00,weatherlink.com 1.10,2013-10-23 13:16:00,
2013-10-23 09:31:00,48.6,40.0,29.95,West,275,15.0,24.0,72,0.00,,,0.00,weatherlink.com 1.10,2013-10-23 13:31:00,
2013-10-23 09:46:00,48.5,39.0,29.96,WNW,293,18.0,24.0,71,0.00,,,0.00,weatherlink.com 1.10,2013-10-23 13:46:00,
2013-10-23 10:01:00,48.2,39.0,29.97,WNW,285,10.0,23.0,70,0.00,,,0.00,weatherlink.com 1.10,2013-10-23 14:01:00,
2013-10-23 10:16:00,48.3,40.0,29.98,West,272,4.0,20.0,72,0.00,,,0.00,weatherlink.com 1.10,2013-10-23 14:16:00,
2013-10-23 10:31:00,47.9,40.0,29.99,West,275,15.0,19.0,73,0.00,,,0.00,weatherlink.com 1.10,2013-10-23 14:31:00,
2013-10-23 10:46:00,47.7,40.0,30.00,West,281,10.0,20.0,74,0.00,,,0.00,weatherlink.com 1.10,2013-10-23 14:46:00,
2013-10-23 11:01:00,48.9,40.0,30.00,West,280,12.0,17.0,72,0.00,,,0.00,weatherlink.com 1.10,2013-10-23 15:01:00,
2013-10-23 11:16:00,47.9,38.0,30.00,WNW,288,13.0,21.0,69,0.00,,,0.00,weatherlink.com 1.10,2013-10-23 15:16:00,
2013-10-23 11:31:00,47.8,37.0,30.01,West,264,6.0,19.0,67,0.00,,,0.00,weatherlink.com 1.10,2013-10-23 15:31:00,
2013-10-23 11:46:00,48.7,38.0,30.02,WNW,300,15.0,19.0,66,0.00,,,0.00,weatherlink.com 1.10,2013-10-23 15:46:00,
2013-10-23 12:01:00,49.2,37.0,30.02,NNE,30,5.0,17.0,64,0.00,,,0.00,weatherlink.com 1.10,2013-10-23 16:01:00,
2013-10-23 12:16:00,49.0,36.0,30.04,WNW,285,9.0,22.0,62,0.00,,,0.00,weatherlink.com 1.10,2013-10-23 16:16:00,
2013-10-23 12:31:00,47.8,38.0,30.05,West,265,10.0,22.0,68,0.00,,,0.00,weatherlink.com 1.10,2013-10-23 16:31:00,
2013-10-23 12:46:00,47.0,37.0,30.05,NW,308,22.0,28.0,69,0.00,,,0.00,weatherlink.com 1.10,2013-10-23 16:46:00,
2013-10-23 13:01:00,45.5,37.0,30.06,West,270,12.0,23.0,71,0.00,,,0.00,weatherlink.com 1.10,2013-10-23 17:01:00,
2013-10-23 13:17:00,45.5,37.0,30.06,NNE,24,2.0,19.0,72,0.00,,,0.00,weatherlink.com 1.10,2013-10-23 17:17:00,
2013-10-23 13:31:00,45.4,37.0,30.07,NW,319,2.0,14.0,72,0.00,,,0.00,weatherlink.com 1.10,2013-10-23 17:31:00,
2013-10-23 13:46:00,45.9,36.0,30.08,NW,315,13.0,15.0,69,0.00,,,0.00,weatherlink.com 1.10,2013-10-23 17:46:00,
2013-10-23 14:02:00,45.1,35.0,30.08,NW,311,5.0,18.0,69,0.00,,,0.00,weatherlink.com 1.10,2013-10-23 18:02:00,
2013-10-23 14:17:00,45.5,37.0,30.08,NW,318,2.0,16.0,72,0.00,,,0.00,weatherlink.com 1.10,2013-10-23 18:17:00,
2013-10-23 14:32:00,45.9,35.0,30.08,NNE,23,5.0,22.0,65,0.00,,,0.00,weatherlink.com 1.10,2013-10-23 18:32:00,
2013-10-23 14:47:00,46.7,34.0,30.09,East,100,1.0,13.0,62,0.00,,,0.00,weatherlink.com 1.10,2013-10-23 18:47:00,
2013-10-23 15:02:00,46.1,35.0,30.09,NW,319,3.0,14.0,65,0.00,,,0.00,weatherlink.com 1.10,2013-10-23 19:02:00,
2013-10-23 15:17:00,45.8,35.0,30.09,WNW,292,9.0,10.0,65,0.00,,,0.00,weatherlink.com 1.10,2013-10-23 19:17:00,
2013-10-23 15:32:00,45.9,35.0,30.10,NW,311,13.0,17.0,67,0.00,,,0.00,weatherlink.com 1.10,2013-10-23 19:32:00,
2013-10-23 15:47:00,46.2,34.0,30.10,NW,316,7.0,12.0,63,0.00,,,0.00,weatherlink.com 1.10,2013-10-23 19:47:00,
2013-10-23 16:02:00,47.1,34.0,30.10,NW,326,6.0,10.0,61,0.00,,,0.00,weatherlink.com 1.10,2013-10-23 20:02:00,
2013-10-23 16:17:00,46.5,34.0,30.11,NW,315,3.0,12.0,62,0.00,,,0.00,weatherlink.com 1.10,2013-10-23 20:17:00,
2013-10-23 16:32:00,45.9,34.0,30.12,NW,314,6.0,8.0,64,0.00,,,0.00,weatherlink.com 1.10,2013-10-23 20:32:00,
2013-10-23 16:47:00,46.6,35.0,30.12,NW,320,1.0,7.0,64,0.00,,,0.00,weatherlink.com 1.10,2013-10-23 20:47:00,
2013-10-23 17:02:00,46.3,34.0,30.12,ENE,75,1.0,6.0,62,0.00,,,0.00,weatherlink.com 1.10,2013-10-23 21:02:00,
2013-10-23 17:17:00,47.1,33.0,30.12,NW,318,3.0,9.0,59,0.00,,,0.00,weatherlink.com 1.10,2013-10-23 21:17:00,
2013-10-23 17:32:00,46.1,34.0,30.13,NW,306,8.0,12.0,62,0.00,,,0.00,weatherlink.com 1.10,2013-10-23 21:32:00,
2013-10-23 17:47:00,46.1,34.0,30.13,NW,307,10.0,17.0,62,0.00,,,0.00,weatherlink.com 1.10,2013-10-23 21:47:00,
2013-10-23 18:02:00,45.6,32.0,30.14,North,349,0.0,14.0,60,0.00,,,0.00,weatherlink.com 1.10,2013-10-23 22:02:00,
2013-10-23 18:17:00,45.2,33.0,30.15,ESE,107,2.0,18.0,63,0.00,,,0.00,weatherlink.com 1.10,2013-10-23 22:17:00,
2013-10-23 18:32:00,44.8,32.0,30.15,NW,311,1.0,9.0,62,0.00,,,0.00,weatherlink.com 1.10,2013-10-23 22:32:00,
2013-10-23 18:47:00,44.4,32.0,30.15,NNW,344,1.0,8.0,63,0.00,,,0.00,weatherlink.com 1.10,2013-10-23 22:47:00,
2013-10-23 19:02:00,43.7,32.0,30.15,WNW,300,3.0,5.0,64,0.00,,,0.00,weatherlink.com 1.10,2013-10-23 23:02:00,
2013-10-23 19:17:00,43.4,32.0,30.16,WNW,302,6.0,6.0,65,0.00,,,0.00,weatherlink.com 1.10,2013-10-23 23:17:00,
2013-10-23 19:32:00,43.1,32.0,30.16,NW,316,1.0,2.0,65,0.00,,,0.00,weatherlink.com 1.10,2013-10-23 23:32:00,
2013-10-23 19:47:00,42.8,32.0,30.17,NNW,334,0.0,2.0,65,0.00,,,0.00,weatherlink.com 1.10,2013-10-23 23:47:00,
2013-10-23 20:02:00,42.6,32.0,30.17,NNW,330,2.0,2.0,66,0.00,,,0.00,weatherlink.com 1.10,2013-10-24 00:02:00,
2013-10-23 20:17:00,42.2,31.0,30.17,North,352,0.0,2.0,66,0.00,,,0.00,weatherlink.com 1.10,2013-10-24 00:17:00,
2013-10-23 20:32:00,41.8,32.0,30.18,NNE,27,0.0,2.0,68,0.00,,,0.00,weatherlink.com 1.10,2013-10-24 00:32:00,
2013-10-23 20:47:00,41.8,32.0,30.18,North,3,2.0,3.0,69,0.00,,,0.00,weatherlink.com 1.10,2013-10-24 00:47:00,
2013-10-23 21:02:00,41.2,33.0,30.18,NNW,337,0.0,3.0,72,0.00,,,0.00,weatherlink.com 1.10,2013-10-24 01:02:00,
2013-10-23 21:17:00,40.7,33.0,30.18,NNE,30,0.0,2.0,74,0.00,,,0.00,weatherlink.com 1.10,2013-10-24 01:17:00,
2013-10-23 21:32:00,40.6,33.0,30.18,North,7,2.0,2.0,74,0.00,,,0.00,weatherlink.com 1.10,2013-10-24 01:32:00,
2013-10-23 21:47:00,40.9,33.0,30.18,North,8,2.0,2.0,74,0.00,,,0.00,weatherlink.com 1.10,2013-10-24 01:47:00,
2013-10-23 22:02:00,40.3,33.0,30.18,NNW,329,0.0,1.0,75,0.00,,,0.00,weatherlink.com 1.10,2013-10-24 02:02:00,
2013-10-23 22:17:00,40.2,33.0,30.18,North,354,1.0,2.0,76,0.00,,,0.00,weatherlink.com 1.10,2013-10-24 02:17:00,
2013-10-23 22:32:00,39.6,33.0,30.19,NNW,327,0.0,1.0,78,0.00,,,0.00,weatherlink.com 1.10,2013-10-24 02:32:00,
2013-10-23 22:47:00,39.8,33.0,30.18,SE,136,1.0,2.0,78,0.00,,,0.00,weatherlink.com 1.10,2013-10-24 02:47:00,
2013-10-23 23:03:00,39.7,33.0,30.18,East,90,1.0,1.0,78,0.00,,,0.00,weatherlink.com 1.10,2013-10-24 03:03:00,
2013-10-23 23:18:00,40.7,34.0,30.19,East,79,0.0,1.0,76,0.00,,,0.00,weatherlink.com 1.10,2013-10-24 03:18:00,
2013-10-23 23:33:00,40.5,34.0,30.20,East,96,0.0,1.0,76,0.00,,,0.00,weatherlink.com 1.10,2013-10-24 03:33:00,
2013-10-23 23:48:00,40.1,33.0,30.19,East,99,1.0,1.0,77,0.00,,,0.00,weatherlink.com 1.10,2013-10-24 03:48:00,